Time;durP1;ratioP1;P1;durP2;ratioP2;P2;SDS_P1;SDS_P2;PMS_P1;PMS_P2;Temp;Humidity;BMP_temperature;BMP_pressure;BME280_temperature;BME280_humidity;BME280_pressure;Samples;Min_cycle;Max_cycle;Signal;HPM_P1;HPM_P2
2023/07/28 00:00:29;;;;;;;;;;;17.70;93.00;;;;;;5065322;28;19966;-85
2023/07/28 00:02:54;;;;;;;;;;;17.70;93.00;;;;;;5038604;28;19913;-85
2023/07/28 00:05:20;;;;;;;;;;;17.70;93.00;;;;;;5066255;28;19920;-84
2023/07/28 00:07:45;;;;;;;;;;;17.60;93.00;;;;;;5055372;28;20278;-84
2023/07/28 00:10:11;;;;;;;;;;;17.70;93.20;;;;;;5029936;28;19917;-85
2023/07/28 00:12:36;;;;;;;;;;;17.70;93.00;;;;;;5060220;28;19916;-85
2023/07/28 00:15:02;;;;;;;;;;;17.80;93.00;;;;;;5039982;28;19909;-84
2023/07/28 00:17:27;;;;;;;;;;;17.80;93.00;;;;;;5053978;28;19913;-84
2023/07/28 00:19:53;;;;;;;;;;;17.80;92.80;;;;;;5061178;28;19916;-84
2023/07/28 00:22:18;;;;;;;;;;;17.90;92.80;;;;;;5035312;28;19962;-84
2023/07/28 00:24:44;;;;;;;;;;;17.80;92.60;;;;;;5057288;28;19964;-85
2023/07/28 00:27:09;;;;;;;;;;;17.90;92.70;;;;;;5071696;28;19908;-84
2023/07/28 00:29:35;;;;;;;;;;;17.80;92.70;;;;;;5034221;28;19913;-84
2023/07/28 00:32:00;;;;;;;;;;;17.80;92.90;;;;;;5041926;28;19912;-84
2023/07/28 00:34:27;;;;;;;;;;;18.00;92.70;;;;;;5031033;28;19917;-84
2023/07/28 00:36:52;;;;;;;;;;;18.00;92.30;;;;;;5041133;28;20314;-83
2023/07/28 00:39:18;;;;;;;;;;;18.00;92.20;;;;;;5032922;28;19967;-84
2023/07/28 00:41:43;;;;;;;;;;;18.00;92.30;;;;;;5042705;28;19967;-85
2023/07/28 00:44:16;;;;;;;;;;;18.00;92.30;;;;;;5051516;28;20019;-84
2023/07/28 00:46:42;;;;;;;;;;;18.00;92.20;;;;;;5035053;28;19951;-84
2023/07/28 00:49:08;;;;;;;;;;;18.00;92.10;;;;;;5031987;28;20370;-84
2023/07/28 00:51:35;;;;;;;;;;;18.00;92.00;;;;;;5044155;28;20578;-84
2023/07/28 00:54:01;;;;;;;;;;;18.00;92.00;;;;;;5041828;28;19951;-84
2023/07/28 00:56:27;;;;;;;;;;;18.10;91.90;;;;;;5026702;28;19913;-83
2023/07/28 00:58:53;;;;;;;;;;;18.10;92.00;;;;;;5054760;28;19917;-83
2023/07/28 01:01:18;;;;;;;;;;;18.10;91.90;;;;;;5044624;28;19912;-85
2023/07/28 01:03:44;;;;;;;;;;;18.00;91.80;;;;;;5038510;28;19980;-84
2023/07/28 01:06:13;;;;;;;;;;;18.00;91.80;;;;;;5063283;28;19916;-84
2023/07/28 01:08:42;;;;;;;;;;;18.00;91.80;;;;;;5031779;28;19916;-84
2023/07/28 01:11:07;;;;;;;;;;;18.00;91.80;;;;;;5046170;28;19935;-84
2023/07/28 01:13:33;;;;;;;;;;;18.00;91.80;;;;;;5042796;28;20376;-84
2023/07/28 01:16:00;;;;;;;;;;;18.00;91.90;;;;;;5045470;28;19920;-85
2023/07/28 01:18:26;;;;;;;;;;;18.10;91.90;;;;;;5058500;28;20387;-84
2023/07/28 01:20:56;;;;;;;;;;;18.10;92.20;;;;;;5043718;28;19916;-85
2023/07/28 01:23:27;;;;;;;;;;;18.10;91.90;;;;;;5054733;28;19956;-84
2023/07/28 01:26:02;;;;;;;;;;;18.10;91.70;;;;;;5062267;28;19923;-84
2023/07/28 01:28:28;;;;;;;;;;;18.10;91.70;;;;;;5042341;28;20171;-84
2023/07/28 01:30:54;;;;;;;;;;;18.10;91.80;;;;;;5049089;28;20290;-84
2023/07/28 01:33:19;;;;;;;;;;;18.10;91.90;;;;;;5031992;28;20003;-84
2023/07/28 01:35:45;;;;;;;;;;;18.10;91.90;;;;;;5036154;28;19919;-84
2023/07/28 01:38:12;;;;;;;;;;;18.10;91.80;;;;;;5052410;28;20047;-84
2023/07/28 01:40:39;;;;;;;;;;;18.10;91.60;;;;;;5037055;28;20380;-84
2023/07/28 01:43:05;;;;;;;;;;;18.10;92.00;;;;;;5055734;28;19909;-84
2023/07/28 01:45:30;;;;;;;;;;;18.10;91.80;;;;;;5065658;28;19921;-84
2023/07/28 01:47:56;;;;;;;;;;;18.10;91.90;;;;;;5050259;28;19924;-84
2023/07/28 01:50:21;;;;;;;;;;;18.10;91.70;;;;;;5036303;28;20288;-83
2023/07/28 01:52:47;;;;;;;;;;;18.00;91.80;;;;;;5039339;28;19919;-84
2023/07/28 01:55:12;;;;;;;;;;;18.00;91.80;;;;;;5034848;28;19909;-84
2023/07/28 01:57:39;;;;;;;;;;;18.10;91.90;;;;;;5056091;28;19924;-83
2023/07/28 02:00:04;;;;;;;;;;;18.10;91.90;;;;;;5053581;28;19916;-83
2023/07/28 02:02:30;;;;;;;;;;;18.10;92.10;;;;;;5036025;28;20615;-84
2023/07/28 02:04:55;;;;;;;;;;;18.10;92.10;;;;;;5039213;28;19920;-83
2023/07/28 02:07:21;;;;;;;;;;;18.10;92.10;;;;;;5033502;28;19917;-84
2023/07/28 02:09:46;;;;;;;;;;;18.20;92.10;;;;;;5035620;28;19909;-84
2023/07/28 02:12:12;;;;;;;;;;;18.10;91.70;;;;;;5062012;28;20372;-83
2023/07/28 02:14:37;;;;;;;;;;;18.20;91.80;;;;;;5039065;28;19908;-83
2023/07/28 02:17:03;;;;;;;;;;;18.20;91.50;;;;;;5044920;28;19909;-83
2023/07/28 02:19:28;;;;;;;;;;;18.30;91.70;;;;;;5052506;28;19921;-84
2023/07/28 02:21:54;;;;;;;;;;;18.30;91.50;;;;;;5040640;28;19913;-84
2023/07/28 02:24:19;;;;;;;;;;;18.20;91.20;;;;;;5043940;28;19938;-84
2023/07/28 02:26:44;;;;;;;;;;;18.20;91.50;;;;;;5059722;28;20403;-84
2023/07/28 02:29:10;;;;;;;;;;;18.20;91.30;;;;;;5050832;28;19920;-83
2023/07/28 02:31:38;;;;;;;;;;;18.30;91.40;;;;;;5043823;28;20391;-84
2023/07/28 02:34:03;;;;;;;;;;;18.30;91.30;;;;;;5062056;28;20003;-85
2023/07/28 02:36:29;;;;;;;;;;;18.20;91.20;;;;;;5042766;28;19948;-84
2023/07/28 02:38:54;;;;;;;;;;;18.20;91.00;;;;;;5050357;28;20352;-84
2023/07/28 02:41:20;;;;;;;;;;;18.20;91.20;;;;;;5027381;28;19909;-84
2023/07/28 02:43:45;;;;;;;;;;;18.20;91.30;;;;;;5052495;28;19913;-84
2023/07/28 02:46:11;;;;;;;;;;;18.20;91.50;;;;;;5031663;28;19921;-84
2023/07/28 02:48:36;;;;;;;;;;;18.10;91.50;;;;;;5036138;28;20346;-84
2023/07/28 02:51:02;;;;;;;;;;;18.00;91.90;;;;;;5046513;28;19975;-84
2023/07/28 02:53:27;;;;;;;;;;;18.10;92.00;;;;;;5053243;28;19913;-85
2023/07/28 02:55:53;;;;;;;;;;;18.10;92.00;;;;;;5036688;28;19916;-84
2023/07/28 02:58:19;;;;;;;;;;;18.10;92.00;;;;;;5045374;28;19924;-84
2023/07/28 03:00:46;;;;;;;;;;;18.00;92.10;;;;;;5053170;28;19909;-83
2023/07/28 03:03:12;;;;;;;;;;;18.00;92.00;;;;;;5042648;28;19920;-83
2023/07/28 03:05:38;;;;;;;;;;;18.10;91.90;;;;;;5059319;28;20292;-84
2023/07/28 03:08:04;;;;;;;;;;;18.10;91.80;;;;;;5053948;28;19966;-83
2023/07/28 03:10:29;;;;;;;;;;;18.00;92.10;;;;;;5040204;28;19912;-83
2023/07/28 03:12:55;;;;;;;;;;;18.00;92.00;;;;;;5055146;28;20000;-83
2023/07/28 03:15:23;;;;;;;;;;;18.00;92.40;;;;;;5063551;28;19913;-82
2023/07/28 03:17:49;;;;;;;;;;;18.00;92.30;;;;;;5061730;28;19963;-82
2023/07/28 03:20:15;;;;;;;;;;;18.00;92.40;;;;;;5035468;28;19920;-82
2023/07/28 03:22:40;;;;;;;;;;;18.00;92.40;;;;;;5060789;28;19909;-83
2023/07/28 03:25:06;;;;;;;;;;;18.00;92.50;;;;;;5059616;28;19955;-83
2023/07/28 03:27:32;;;;;;;;;;;18.00;92.60;;;;;;5052089;28;19971;-82
2023/07/28 03:29:57;;;;;;;;;;;17.90;92.50;;;;;;5054175;28;19938;-82
2023/07/28 03:32:23;;;;;;;;;;;17.90;92.70;;;;;;5041440;28;19967;-83
2023/07/28 03:34:48;;;;;;;;;;;18.00;92.80;;;;;;5038712;28;19967;-83
2023/07/28 03:37:13;;;;;;;;;;;17.90;92.90;;;;;;5063956;28;19916;-82
2023/07/28 03:39:39;;;;;;;;;;;17.90;92.80;;;;;;5044275;28;19909;-82
2023/07/28 03:42:05;;;;;;;;;;;17.90;92.80;;;;;;5063249;28;19913;-82
2023/07/28 03:44:30;;;;;;;;;;;17.90;92.70;;;;;;5046999;28;19956;-82
2023/07/28 03:46:56;;;;;;;;;;;17.80;92.90;;;;;;5040778;28;19912;-83
2023/07/28 03:49:21;;;;;;;;;;;18.00;92.80;;;;;;5044563;28;20368;-82
2023/07/28 03:51:47;;;;;;;;;;;17.90;92.90;;;;;;5035157;28;19921;-82
2023/07/28 03:54:12;;;;;;;;;;;18.00;93.00;;;;;;5028907;28;19917;-82
2023/07/28 03:56:38;;;;;;;;;;;18.00;92.80;;;;;;5063563;28;19909;-82
2023/07/28 03:59:03;;;;;;;;;;;18.00;92.90;;;;;;5039714;28;19942;-82
2023/07/28 04:01:29;;;;;;;;;;;18.00;92.70;;;;;;5053324;28;20412;-82
2023/07/28 04:03:54;;;;;;;;;;;17.90;92.80;;;;;;5052271;28;19913;-82
2023/07/28 04:06:38;;;;;;;;;;;17.90;93.00;;;;;;5042751;28;19955;-82
2023/07/28 04:09:04;;;;;;;;;;;17.90;93.10;;;;;;5041787;28;19952;-82
2023/07/28 04:11:29;;;;;;;;;;;18.00;93.00;;;;;;5055750;28;20303;-82
2023/07/28 04:13:54;;;;;;;;;;;18.00;93.00;;;;;;5051903;28;20016;-82
2023/07/28 04:16:20;;;;;;;;;;;18.00;93.10;;;;;;5061523;28;20293;-83
2023/07/28 04:18:45;;;;;;;;;;;18.00;92.90;;;;;;5054624;28;20368;-83
2023/07/28 04:21:11;;;;;;;;;;;18.00;93.00;;;;;;5049761;28;19979;-82
2023/07/28 04:23:36;;;;;;;;;;;18.00;92.90;;;;;;5052145;28;19920;-82
2023/07/28 04:26:02;;;;;;;;;;;18.10;93.00;;;;;;5055609;28;19913;-83
2023/07/28 04:28:27;;;;;;;;;;;18.00;92.90;;;;;;5047726;28;19908;-83
2023/07/28 04:30:52;;;;;;;;;;;18.00;93.00;;;;;;5056724;28;19912;-83
2023/07/28 04:33:18;;;;;;;;;;;18.10;93.00;;;;;;5037088;28;19913;-83
2023/07/28 04:35:43;;;;;;;;;;;18.10;92.90;;;;;;5040220;28;19920;-83
2023/07/28 04:38:09;;;;;;;;;;;18.10;92.60;;;;;;5042051;28;19919;-82
2023/07/28 04:40:34;;;;;;;;;;;18.10;92.80;;;;;;5047644;28;19916;-82
2023/07/28 04:43:00;;;;;;;;;;;18.10;92.70;;;;;;5039680;28;19913;-82
2023/07/28 04:45:25;;;;;;;;;;;18.10;92.70;;;;;;5042877;28;19921;-83
2023/07/28 04:47:51;;;;;;;;;;;18.10;92.70;;;;;;5038653;28;19976;-82
2023/07/28 04:50:16;;;;;;;;;;;18.10;92.70;;;;;;5041562;28;19921;-82
2023/07/28 04:52:41;;;;;;;;;;;18.10;92.80;;;;;;5055103;28;19924;-82
2023/07/28 04:55:07;;;;;;;;;;;18.20;92.80;;;;;;5045172;28;19913;-82
2023/07/28 04:57:33;;;;;;;;;;;18.20;92.50;;;;;;5073566;28;20054;-83
2023/07/28 04:59:58;;;;;;;;;;;18.20;92.30;;;;;;5051310;28;20014;-82
2023/07/28 05:02:23;;;;;;;;;;;18.20;92.60;;;;;;5032500;28;19909;-83
2023/07/28 05:04:49;;;;;;;;;;;18.20;92.70;;;;;;5051739;28;19924;-82
2023/07/28 05:07:17;;;;;;;;;;;18.30;92.40;;;;;;5031535;28;19917;-82
2023/07/28 05:09:44;;;;;;;;;;;18.30;92.20;;;;;;5039305;28;19916;-83
2023/07/28 05:12:10;;;;;;;;;;;18.30;92.10;;;;;;5045578;28;19915;-83
2023/07/28 05:14:35;;;;;;;;;;;18.30;92.10;;;;;;5036521;28;20602;-82
2023/07/28 05:17:01;;;;;;;;;;;18.30;92.50;;;;;;5055567;28;20007;-86
2023/07/28 05:19:26;;;;;;;;;;;18.30;92.40;;;;;;5057994;28;19951;-87
2023/07/28 05:21:52;;;;;;;;;;;18.30;92.40;;;;;;5055676;28;19920;-88
2023/07/28 05:24:17;;;;;;;;;;;18.20;92.20;;;;;;5030148;28;20403;-86
2023/07/28 05:26:43;;;;;;;;;;;18.30;92.20;;;;;;5033033;28;19912;-89
2023/07/28 05:29:08;;;;;;;;;;;18.30;92.40;;;;;;5034407;28;19912;-85
2023/07/28 05:31:34;;;;;;;;;;;18.30;92.40;;;;;;5048912;28;19995;-87
2023/07/28 05:33:59;;;;;;;;;;;18.30;92.40;;;;;;5059689;28;19917;-83
2023/07/28 05:36:25;;;;;;;;;;;18.40;92.20;;;;;;5047153;28;20008;-83
2023/07/28 05:38:51;;;;;;;;;;;18.40;92.20;;;;;;5031243;28;21087;-83
2023/07/28 05:41:16;;;;;;;;;;;18.50;92.00;;;;;;5032869;28;19913;-85
2023/07/28 05:43:41;;;;;;;;;;;18.50;92.10;;;;;;5056962;28;20050;-84
2023/07/28 05:46:07;;;;;;;;;;;18.60;92.00;;;;;;5048589;28;19917;-82
2023/07/28 05:48:33;;;;;;;;;;;18.60;92.00;;;;;;5053519;28;20397;-84
2023/07/28 05:50:58;;;;;;;;;;;18.60;91.90;;;;;;5045170;28;19924;-84
2023/07/28 05:53:23;;;;;;;;;;;18.60;92.00;;;;;;5035407;28;19909;-82
2023/07/28 05:55:49;;;;;;;;;;;18.80;91.90;;;;;;5032026;28;20422;-83
2023/07/28 05:58:15;;;;;;;;;;;18.80;91.90;;;;;;5027987;28;19928;-84
2023/07/28 06:00:42;;;;;;;;;;;18.80;91.70;;;;;;5030028;28;19913;-83
2023/07/28 06:03:09;;;;;;;;;;;18.80;91.60;;;;;;5051143;28;19909;-83
2023/07/28 06:05:35;;;;;;;;;;;18.90;91.50;;;;;;5049709;28;19920;-83
2023/07/28 06:08:00;;;;;;;;;;;18.90;91.30;;;;;;5049554;28;19916;-84
2023/07/28 06:10:26;;;;;;;;;;;18.80;91.50;;;;;;5057137;28;19990;-82
2023/07/28 06:12:51;;;;;;;;;;;18.80;91.40;;;;;;5047480;28;19912;-83
2023/07/28 06:15:17;;;;;;;;;;;18.80;91.60;;;;;;5030368;28;19984;-83
2023/07/28 06:17:42;;;;;;;;;;;18.80;91.40;;;;;;5044444;28;19913;-83
2023/07/28 06:20:09;;;;;;;;;;;18.90;91.30;;;;;;5051417;28;20420;-83
2023/07/28 06:22:34;;;;;;;;;;;18.80;91.10;;;;;;5037845;28;19969;-84
2023/07/28 06:25:00;;;;;;;;;;;18.80;91.00;;;;;;5032728;28;19916;-84
2023/07/28 06:27:25;;;;;;;;;;;18.70;91.30;;;;;;5040129;28;20389;-84
2023/07/28 06:29:51;;;;;;;;;;;18.70;91.40;;;;;;5046620;28;19913;-84
2023/07/28 06:32:16;;;;;;;;;;;18.70;91.40;;;;;;5035135;28;19920;-84
2023/07/28 06:34:42;;;;;;;;;;;18.70;91.60;;;;;;5052727;28;20392;-83
2023/07/28 06:37:07;;;;;;;;;;;18.80;91.40;;;;;;5073536;28;19952;-85
2023/07/28 06:39:33;;;;;;;;;;;18.80;91.60;;;;;;5034804;28;19917;-85
2023/07/28 06:42:01;;;;;;;;;;;18.80;91.50;;;;;;5038470;28;19917;-88
2023/07/28 06:44:27;;;;;;;;;;;18.80;91.50;;;;;;5051514;28;20444;-89
2023/07/28 06:46:53;;;;;;;;;;;18.80;91.50;;;;;;5028494;28;19912;-86
2023/07/28 06:49:24;;;;;;;;;;;18.90;91.30;;;;;;5031808;28;20030;-87
2023/07/28 06:51:50;;;;;;;;;;;19.00;91.60;;;;;;5039140;28;19917;-86
2023/07/28 06:54:15;;;;;;;;;;;19.10;91.00;;;;;;5047767;28;19920;-87
2023/07/28 06:56:41;;;;;;;;;;;19.20;91.00;;;;;;5039109;28;19920;-83
2023/07/28 06:59:07;;;;;;;;;;;19.30;91.00;;;;;;5044926;28;19947;-88
2023/07/28 07:01:33;;;;;;;;;;;19.30;90.80;;;;;;5027971;28;19917;-87
2023/07/28 07:03:58;;;;;;;;;;;19.50;90.80;;;;;;5031430;28;20251;-87
2023/07/28 07:06:24;;;;;;;;;;;19.50;90.40;;;;;;5027183;28;20898;-89
2023/07/28 07:08:49;;;;;;;;;;;19.60;90.30;;;;;;5033817;28;19963;-86
2023/07/28 07:11:15;;;;;;;;;;;19.70;90.00;;;;;;5050096;28;19936;-84
2023/07/28 07:13:40;;;;;;;;;;;19.70;89.80;;;;;;5053688;28;19928;-89
2023/07/28 07:16:15;;;;;;;;;;;19.80;89.60;;;;;;5047470;28;19912;-89
2023/07/28 07:18:44;;;;;;;;;;;19.90;89.40;;;;;;5037847;28;19917;-89
2023/07/28 07:21:09;;;;;;;;;;;19.90;89.10;;;;;;5041677;28;19912;-88
2023/07/28 07:23:35;;;;;;;;;;;19.90;88.60;;;;;;5052782;28;19966;-86
2023/07/28 07:26:01;;;;;;;;;;;19.80;88.80;;;;;;5035191;28;20012;-87
2023/07/28 07:28:28;;;;;;;;;;;19.80;88.70;;;;;;5035723;28;19933;-87
2023/07/28 07:30:56;;;;;;;;;;;20.00;88.80;;;;;;5031405;28;19917;-86
2023/07/28 07:33:22;;;;;;;;;;;20.00;88.30;;;;;;5036225;28;19977;-86
2023/07/28 07:35:50;;;;;;;;;;;20.10;88.20;;;;;;5046299;28;20293;-86
2023/07/28 07:38:15;;;;;;;;;;;20.10;88.10;;;;;;5036983;28;19917;-88
2023/07/28 07:40:41;;;;;;;;;;;20.10;87.60;;;;;;5031629;28;20411;-86
2023/07/28 07:43:06;;;;;;;;;;;20.20;87.50;;;;;;5032947;28;20325;-84
2023/07/28 07:45:32;;;;;;;;;;;20.20;87.80;;;;;;5028694;28;21404;-82
2023/07/28 07:47:58;;;;;;;;;;;20.20;87.60;;;;;;5049865;28;19913;-82
2023/07/28 07:50:24;;;;;;;;;;;20.20;88.00;;;;;;5038436;28;20003;-81
2023/07/28 07:52:49;;;;;;;;;;;20.10;87.90;;;;;;5030368;28;20724;-80
2023/07/28 07:55:15;;;;;;;;;;;20.10;88.10;;;;;;5031811;28;19924;-83
2023/07/28 07:57:40;;;;;;;;;;;20.30;87.50;;;;;;5065161;28;19924;-88
2023/07/28 08:00:11;;;;;;;;;;;20.30;87.20;;;;;;5034702;28;20384;-88
2023/07/28 08:02:39;;;;;;;;;;;20.30;87.50;;;;;;5032700;28;19939;-87
2023/07/28 08:05:05;;;;;;;;;;;20.30;87.30;;;;;;5049680;28;19986;-86
2023/07/28 08:07:40;;;;;;;;;;;20.30;86.90;;;;;;5035177;28;19917;-87
2023/07/28 08:10:06;;;;;;;;;;;20.30;86.80;;;;;;5035553;28;20440;-89
2023/07/28 08:15:23;;;;;;;;;;;20.20;87.80;;;;;;5018765;28;20485;-87
2023/07/28 08:17:50;;;;;;;;;;;20.30;87.60;;;;;;5033111;28;20015;-87
2023/07/28 08:20:15;;;;;;;;;;;20.20;86.90;;;;;;5045527;28;20379;-86
2023/07/28 08:22:41;;;;;;;;;;;20.10;87.20;;;;;;5062234;28;20016;-84
2023/07/28 08:25:06;;;;;;;;;;;20.10;87.30;;;;;;5061862;28;19919;-84
2023/07/28 08:27:32;;;;;;;;;;;20.10;87.60;;;;;;5050122;28;20384;-88
2023/07/28 08:29:57;;;;;;;;;;;20.10;87.40;;;;;;5030704;28;20461;-85
2023/07/28 08:32:23;;;;;;;;;;;20.20;87.50;;;;;;5043758;28;19913;-85
2023/07/28 08:34:48;;;;;;;;;;;20.30;87.00;;;;;;5052320;28;20734;-84
2023/07/28 08:37:14;;;;;;;;;;;20.30;87.00;;;;;;5048394;28;20391;-85
2023/07/28 08:39:39;;;;;;;;;;;20.40;86.90;;;;;;5041984;28;19912;-85
2023/07/28 08:42:05;;;;;;;;;;;20.40;87.00;;;;;;5033281;28;20406;-86
2023/07/28 08:44:32;;;;;;;;;;;20.60;87.10;;;;;;5026909;28;20018;-88
2023/07/28 08:46:58;;;;;;;;;;;20.70;86.00;;;;;;5026331;28;20392;-88
2023/07/28 08:49:24;;;;;;;;;;;21.00;85.90;;;;;;5027432;28;19917;-88
2023/07/28 08:51:52;;;;;;;;;;;21.10;85.60;;;;;;5030504;28;20304;-88
2023/07/28 08:54:18;;;;;;;;;;;21.30;85.30;;;;;;5033771;28;20002;-87
2023/07/28 08:56:43;;;;;;;;;;;21.50;84.20;;;;;;5042789;28;19959;-87
2023/07/28 08:59:09;;;;;;;;;;;21.40;83.70;;;;;;5028998;28;19925;-86
2023/07/28 09:01:39;;;;;;;;;;;21.30;84.10;;;;;;5031094;28;19920;-83
2023/07/28 09:04:10;;;;;;;;;;;21.20;83.80;;;;;;5031363;28;19927;-85
2023/07/28 09:06:36;;;;;;;;;;;21.10;84.00;;;;;;5029070;28;19978;-84
2023/07/28 09:09:01;;;;;;;;;;;21.10;84.10;;;;;;5049618;28;19913;-85
2023/07/28 09:11:27;;;;;;;;;;;21.10;84.30;;;;;;5046762;28;19957;-86
2023/07/28 09:13:54;;;;;;;;;;;21.00;84.50;;;;;;5025503;28;19913;-87
2023/07/28 09:16:20;;;;;;;;;;;20.80;85.00;;;;;;5047527;28;19923;-86
2023/07/28 09:18:45;;;;;;;;;;;20.80;85.20;;;;;;5032088;28;20280;-86
2023/07/28 09:21:18;;;;;;;;;;;20.90;85.50;;;;;;5033684;28;19936;-85
2023/07/28 09:23:44;;;;;;;;;;;21.00;85.60;;;;;;5032865;28;20269;-86
2023/07/28 09:26:10;;;;;;;;;;;21.10;84.80;;;;;;5042866;28;19923;-85
2023/07/28 09:28:39;;;;;;;;;;;21.10;84.80;;;;;;5047084;28;19923;-86
2023/07/28 09:31:05;;;;;;;;;;;21.20;85.30;;;;;;5051673;28;19920;-86
2023/07/28 09:33:35;;;;;;;;;;;21.50;84.90;;;;;;5037879;28;20284;-84
2023/07/28 09:36:08;;;;;;;;;;;21.60;84.20;;;;;;5032156;28;19912;-86
2023/07/28 09:38:35;;;;;;;;;;;21.90;83.30;;;;;;5032477;28;20392;-86
2023/07/28 09:41:02;;;;;;;;;;;22.00;82.40;;;;;;5030208;28;20007;-86
2023/07/28 09:43:28;;;;;;;;;;;22.00;82.70;;;;;;5052162;28;19951;-86
2023/07/28 09:45:54;;;;;;;;;;;22.00;82.80;;;;;;5049055;28;19952;-86
2023/07/28 09:48:20;;;;;;;;;;;22.10;82.60;;;;;;5054045;28;19924;-85
2023/07/28 09:50:49;;;;;;;;;;;22.10;82.70;;;;;;5053925;28;19948;-86
2023/07/28 09:53:15;;;;;;;;;;;22.10;82.20;;;;;;5037030;28;19951;-86
2023/07/28 09:55:42;;;;;;;;;;;22.10;82.00;;;;;;5027846;28;19920;-86
2023/07/28 09:58:09;;;;;;;;;;;22.20;82.90;;;;;;5029138;28;19923;-86
2023/07/28 10:00:35;;;;;;;;;;;22.10;82.40;;;;;;5031955;28;19974;-86
2023/07/28 10:03:02;;;;;;;;;;;22.10;82.30;;;;;;5027295;28;19913;-87
2023/07/28 10:05:27;;;;;;;;;;;22.00;82.10;;;;;;5026892;28;19924;-86
2023/07/28 10:07:53;;;;;;;;;;;21.80;82.60;;;;;;5031259;28;19999;-85
2023/07/28 10:10:19;;;;;;;;;;;21.70;83.50;;;;;;5026940;28;20007;-86
2023/07/28 10:12:51;;;;;;;;;;;21.70;84.00;;;;;;5050143;28;19919;-85
2023/07/28 10:15:18;;;;;;;;;;;21.80;84.10;;;;;;5029098;28;19920;-86
2023/07/28 10:17:52;;;;;;;;;;;21.80;83.20;;;;;;5024021;28;19923;-86
2023/07/28 10:20:34;;;;;;;;;;;21.90;83.50;;;;;;5045886;28;19912;-86
2023/07/28 10:23:04;;;;;;;;;;;22.10;83.00;;;;;;5028662;28;19913;-86
2023/07/28 10:25:32;;;;;;;;;;;22.10;83.00;;;;;;5048714;28;20015;-86
2023/07/28 10:27:58;;;;;;;;;;;22.20;82.50;;;;;;5033347;28;20283;-86
2023/07/28 10:30:24;;;;;;;;;;;22.30;81.70;;;;;;5028812;28;19912;-86
2023/07/28 10:32:52;;;;;;;;;;;22.40;80.90;;;;;;5032265;28;19917;-85
2023/07/28 10:35:18;;;;;;;;;;;22.60;80.30;;;;;;5029713;28;19920;-86
2023/07/28 10:37:44;;;;;;;;;;;22.80;79.50;;;;;;5029174;28;19913;-87
2023/07/28 10:40:29;;;;;;;;;;;22.60;78.80;;;;;;5039978;28;19916;-86
2023/07/28 10:42:55;;;;;;;;;;;22.50;79.40;;;;;;5025689;28;19912;-86
2023/07/28 10:45:25;;;;;;;;;;;22.50;79.90;;;;;;5044115;28;20347;-86
2023/07/28 10:47:55;;;;;;;;;;;22.30;79.70;;;;;;5029352;28;19923;-86
2023/07/28 10:50:21;;;;;;;;;;;22.30;80.20;;;;;;5028571;28;20276;-86
2023/07/28 10:52:46;;;;;;;;;;;22.30;79.70;;;;;;5036605;28;19912;-85
2023/07/28 10:55:20;;;;;;;;;;;22.20;81.30;;;;;;5032783;28;20354;-86
2023/07/28 10:57:46;;;;;;;;;;;22.20;81.20;;;;;;5049122;28;19925;-86
2023/07/28 11:00:12;;;;;;;;;;;22.20;80.70;;;;;;5038115;28;19919;-85
2023/07/28 11:02:45;;;;;;;;;;;22.30;80.50;;;;;;5044750;28;19916;-85
2023/07/28 11:05:12;;;;;;;;;;;22.40;80.30;;;;;;5035746;28;19931;-86
2023/07/28 11:07:40;;;;;;;;;;;22.60;79.80;;;;;;5055880;28;20307;-86
2023/07/28 11:10:06;;;;;;;;;;;22.70;79.00;;;;;;5035982;28;20291;-86
2023/07/28 11:12:32;;;;;;;;;;;22.80;78.10;;;;;;5049670;28;20078;-86
2023/07/28 11:14:58;;;;;;;;;;;22.80;78.20;;;;;;5037876;28;19993;-86
2023/07/28 11:17:24;;;;;;;;;;;22.80;78.00;;;;;;5045061;28;20356;-87
2023/07/28 11:19:49;;;;;;;;;;;22.90;77.20;;;;;;5027518;28;19912;-85
2023/07/28 11:22:16;;;;;;;;;;;22.90;77.20;;;;;;5030082;28;19919;-85
2023/07/28 11:24:42;;;;;;;;;;;22.80;77.70;;;;;;5047059;28;19924;-85
2023/07/28 11:27:08;;;;;;;;;;;22.80;77.50;;;;;;5026077;28;19913;-85
2023/07/28 11:29:33;;;;;;;;;;;23.00;77.10;;;;;;5045941;28;19964;-86
2023/07/28 11:31:59;;;;;;;;;;;23.10;77.00;;;;;;5031886;28;19962;-86
2023/07/28 11:34:25;;;;;;;;;;;23.10;76.90;;;;;;5030332;28;20000;-85
2023/07/28 11:36:51;;;;;;;;;;;23.20;77.00;;;;;;5051011;28;20354;-86
2023/07/28 11:39:16;;;;;;;;;;;23.20;76.90;;;;;;5043172;28;19917;-86
2023/07/28 11:41:43;;;;;;;;;;;23.30;76.70;;;;;;5064221;28;19909;-86
2023/07/28 11:44:09;;;;;;;;;;;23.30;76.40;;;;;;5034430;28;19924;-87
2023/07/28 11:46:39;;;;;;;;;;;23.30;76.00;;;;;;5058011;28;19922;-86
2023/07/28 11:49:13;;;;;;;;;;;23.30;76.10;;;;;;5064380;28;19908;-87
2023/07/28 11:51:43;;;;;;;;;;;23.20;75.10;;;;;;5033619;28;19966;-86
2023/07/28 11:54:15;;;;;;;;;;;23.20;75.80;;;;;;5064400;28;20294;-87
2023/07/28 11:56:45;;;;;;;;;;;23.20;75.50;;;;;;5043894;28;19915;-87
2023/07/28 11:59:11;;;;;;;;;;;23.20;75.80;;;;;;5042782;28;19916;-86
2023/07/28 12:01:55;;;;;;;;;;;23.10;76.10;;;;;;5043856;28;19930;-87
2023/07/28 12:04:28;;;;;;;;;;;23.20;76.30;;;;;;5032585;28;19917;-87
2023/07/28 12:07:20;;;;;;;;;;;23.30;75.90;;;;;;5057112;28;19912;-86
2023/07/28 12:09:45;;;;;;;;;;;23.50;76.30;;;;;;5039837;28;19920;-86
2023/07/28 12:12:11;;;;;;;;;;;23.50;74.60;;;;;;5034134;28;19913;-87
2023/07/28 12:14:36;;;;;;;;;;;23.50;76.20;;;;;;5033918;28;19912;-86
2023/07/28 12:17:02;;;;;;;;;;;23.60;74.60;;;;;;5049177;28;20314;-87
2023/07/28 12:19:28;;;;;;;;;;;23.60;74.00;;;;;;5055569;28;19913;-86
2023/07/28 12:21:54;;;;;;;;;;;23.60;73.90;;;;;;5060044;28;20026;-87
2023/07/28 12:24:19;;;;;;;;;;;23.40;74.00;;;;;;5034212;28;19921;-85
2023/07/28 12:26:45;;;;;;;;;;;23.20;74.00;;;;;;5037088;28;20370;-86
2023/07/28 12:29:11;;;;;;;;;;;23.00;75.00;;;;;;5045278;28;20268;-85
2023/07/28 12:31:40;;;;;;;;;;;22.80;77.20;;;;;;5042322;28;19923;-87
2023/07/28 12:34:06;;;;;;;;;;;22.80;80.10;;;;;;5035431;28;19916;-86
2023/07/28 12:36:32;;;;;;;;;;;22.40;80.70;;;;;;5056401;28;19936;-86
2023/07/28 12:38:57;;;;;;;;;;;22.30;83.40;;;;;;5039190;28;19913;-88
2023/07/28 12:41:26;;;;;;;;;;;22.10;84.10;;;;;;5037381;28;20004;-87
2023/07/28 12:43:52;;;;;;;;;;;22.00;84.00;;;;;;5024064;28;19921;-85
2023/07/28 12:46:17;;;;;;;;;;;21.90;84.90;;;;;;5035750;28;19916;-85
2023/07/28 12:48:43;;;;;;;;;;;22.00;85.40;;;;;;5034539;28;19996;-85
2023/07/28 12:51:09;;;;;;;;;;;22.10;85.80;;;;;;5035920;28;20414;-84
2023/07/28 12:53:37;;;;;;;;;;;22.20;85.20;;;;;;5055831;28;19921;-85
2023/07/28 12:56:03;;;;;;;;;;;22.30;86.10;;;;;;5058844;28;19940;-86
2023/07/28 12:58:33;;;;;;;;;;;22.60;85.80;;;;;;5055436;28;19924;-84
2023/07/28 13:01:01;;;;;;;;;;;22.80;84.70;;;;;;5035164;28;20545;-85
2023/07/28 13:03:26;;;;;;;;;;;22.90;84.20;;;;;;5060487;28;19913;-85
2023/07/28 13:05:52;;;;;;;;;;;22.90;83.70;;;;;;5053750;28;20276;-85
2023/07/28 13:08:17;;;;;;;;;;;22.90;84.50;;;;;;5043248;28;19917;-85
2023/07/28 13:10:43;;;;;;;;;;;22.90;85.30;;;;;;5034761;28;19920;-85
2023/07/28 13:13:12;;;;;;;;;;;22.80;83.50;;;;;;5053560;28;19913;-85
2023/07/28 13:15:37;;;;;;;;;;;22.80;83.50;;;;;;5033343;28;20380;-86
2023/07/28 13:18:03;;;;;;;;;;;22.90;82.80;;;;;;5051683;28;19913;-86
2023/07/28 13:20:28;;;;;;;;;;;22.90;82.60;;;;;;5031290;28;20019;-86
2023/07/28 13:22:54;;;;;;;;;;;23.00;81.20;;;;;;5047416;28;20303;-86
2023/07/28 13:25:19;;;;;;;;;;;22.90;81.60;;;;;;5049334;28;19963;-85
2023/07/28 13:27:44;;;;;;;;;;;23.10;81.20;;;;;;5053307;28;19928;-84
2023/07/28 13:30:10;;;;;;;;;;;23.10;81.10;;;;;;5059368;28;19919;-85
2023/07/28 13:32:36;;;;;;;;;;;23.30;80.20;;;;;;5058122;28;20491;-85
2023/07/28 13:35:01;;;;;;;;;;;23.20;81.90;;;;;;5028089;28;19945;-85
2023/07/28 13:37:27;;;;;;;;;;;23.20;79.70;;;;;;5035220;28;20450;-85
2023/07/28 13:39:53;;;;;;;;;;;23.20;81.10;;;;;;5057337;28;20621;-85
2023/07/28 13:42:18;;;;;;;;;;;23.30;80.10;;;;;;5034083;28;19916;-85
2023/07/28 13:44:44;;;;;;;;;;;23.50;78.60;;;;;;5052778;28;20284;-85
2023/07/28 13:47:09;;;;;;;;;;;23.60;76.80;;;;;;5059910;28;19908;-85
2023/07/28 13:49:36;;;;;;;;;;;23.70;76.70;;;;;;5035468;28;19920;-85
2023/07/28 13:52:02;;;;;;;;;;;23.70;77.20;;;;;;5033309;28;19917;-85
2023/07/28 13:54:27;;;;;;;;;;;23.90;77.70;;;;;;5033750;28;19917;-85
2023/07/28 13:56:53;;;;;;;;;;;24.00;75.80;;;;;;5044902;28;20544;-84
2023/07/28 13:59:18;;;;;;;;;;;24.10;74.30;;;;;;5048526;28;19921;-85
2023/07/28 14:01:44;;;;;;;;;;;24.20;75.40;;;;;;5035674;28;19920;-85
2023/07/28 14:04:09;;;;;;;;;;;24.20;74.10;;;;;;5048438;28;19909;-85
2023/07/28 14:06:37;;;;;;;;;;;24.20;74.30;;;;;;5052415;28;22498;-85
2023/07/28 14:09:02;;;;;;;;;;;24.00;73.50;;;;;;5044086;28;19924;-85
2023/07/28 14:11:28;;;;;;;;;;;24.00;73.00;;;;;;5064634;28;20387;-85
2023/07/28 14:13:53;;;;;;;;;;;23.90;73.00;;;;;;5038311;28;19916;-85